
<gpx xmlns="http://www.topografix.com/GPX/1/1" xmlns:gpxx="http://www.garmin.com/xmlschemas/GpxExtensions/v3" xmlns:xsi="http://www.w3.org/2001/XMLSchema-instance" version="1.1" creator="Adze - https://getadze.com/" xsi:schemaLocation="http://www.topografix.com/GPX/1/1 http://www.topografix.com/GPX/1/1/gpx.xsd http://www.garmin.com/xmlschemas/GpxExtensions/v3 http://www.garmin.com/xmlschemas/GpxExtensionsv3.xsd">
    <metadata>
        <name>Untitled Document</name>
        <link href="http://www.garmin.com"></link>
        <time>2018-03-08T10:29:54.361Z</time>
    </metadata>
    <trk>
        <name>February 2011 (CM Special) - Saturday</name>
        <extensions>
            <gpxx:TrackExtension xmlns:gpxx="http://www.garmin.com/xmlschemas/GpxExtensions/v3">
                <gpxx:DisplayColor>Red</gpxx:DisplayColor>
            </gpxx:TrackExtension>
        </extensions>
        <trkseg>
            <trkpt lon="98.889120" lat="18.816426">
                <ele>1537.285400</ele>
                <time>2011-02-19T07:01:07Z</time>
            </trkpt>
            <trkpt lon="98.889664" lat="18.816275">
                <ele>1543.533936</ele>
                <time>2011-02-19T07:01:49Z</time>
            </trkpt>
            <trkpt lon="98.890114" lat="18.815956">
                <ele>1546.417969</ele>
                <time>2011-02-19T07:02:26Z</time>
            </trkpt>
            <trkpt lon="98.890567" lat="18.816110">
                <ele>1551.705322</ele>
                <time>2011-02-19T07:03:01Z</time>
            </trkpt>
            <trkpt lon="98.891038" lat="18.815893">
                <ele>1559.876221</ele>
                <time>2011-02-19T07:03:52Z</time>
            </trkpt>
            <trkpt lon="98.891006" lat="18.816081">
                <ele>1565.644531</ele>
                <time>2011-02-19T07:04:23Z</time>
            </trkpt>
            <trkpt lon="98.890938" lat="18.816633">
                <ele>1570.931641</ele>
                <time>2011-02-19T07:05:06Z</time>
            </trkpt>
            <trkpt lon="98.890626" lat="18.816880">
                <ele>1574.296143</ele>
                <time>2011-02-19T07:05:46Z</time>
            </trkpt>
            <trkpt lon="98.890558" lat="18.817068">
                <ele>1579.102539</ele>
                <time>2011-02-19T07:06:10Z</time>
            </trkpt>
            <trkpt lon="98.890890" lat="18.817132">
                <ele>1582.947998</ele>
                <time>2011-02-19T07:06:41Z</time>
            </trkpt>
            <trkpt lon="98.892182" lat="18.816704">
                <ele>1596.887207</ele>
                <time>2011-02-19T07:08:05Z</time>
            </trkpt>
            <trkpt lon="98.892593" lat="18.816614">
                <ele>1598.809814</ele>
                <time>2011-02-19T07:10:33Z</time>
            </trkpt>
            <trkpt lon="98.893186" lat="18.816485">
                <ele>1587.273926</ele>
                <time>2011-02-19T07:12:03Z</time>
            </trkpt>
            <trkpt lon="98.893459" lat="18.816202">
                <ele>1579.583252</ele>
                <time>2011-02-19T07:12:09Z</time>
            </trkpt>
            <trkpt lon="98.893692" lat="18.816129">
                <ele>1578.141357</ele>
                <time>2011-02-19T07:12:12Z</time>
            </trkpt>
            <trkpt lon="98.893931" lat="18.816180">
                <ele>1577.180176</ele>
                <time>2011-02-19T07:12:17Z</time>
            </trkpt>
            <trkpt lon="98.893887" lat="18.816720">
                <ele>1575.738037</ele>
                <time>2011-02-19T07:12:30Z</time>
            </trkpt>
            <trkpt lon="98.893788" lat="18.817367">
                <ele>1567.566894</ele>
                <time>2011-02-19T07:12:43Z</time>
            </trkpt>
            <trkpt lon="98.892909" lat="18.817470">
                <ele>1563.721436</ele>
                <time>2011-02-19T07:12:57Z</time>
            </trkpt>
            <trkpt lon="98.892404" lat="18.817362">
                <ele>1567.086426</ele>
                <time>2011-02-19T07:13:19Z</time>
            </trkpt>
            <trkpt lon="98.892556" lat="18.817389">
                <ele>1566.605713</ele>
                <time>2011-02-19T07:13:54Z</time>
            </trkpt>
            <trkpt lon="98.892238" lat="18.817519">
                <ele>1560.356934</ele>
                <time>2011-02-19T07:14:10Z</time>
            </trkpt>
            <trkpt lon="98.892206" lat="18.817797">
                <ele>1558.434326</ele>
                <time>2011-02-19T07:14:15Z</time>
            </trkpt>
            <trkpt lon="98.891875" lat="18.819114">
                <ele>1536.804688</ele>
                <time>2011-02-19T07:14:34Z</time>
            </trkpt>
            <trkpt lon="98.892116" lat="18.820396">
                <ele>1537.766113</ele>
                <time>2011-02-19T07:14:46Z</time>
            </trkpt>
            <trkpt lon="98.891271" lat="18.820904">
                <ele>1544.975830</ele>
                <time>2011-02-19T07:15:39Z</time>
            </trkpt>
            <trkpt lon="98.890102" lat="18.823067">
                <ele>1543.053223</ele>
                <time>2011-02-19T07:16:53Z</time>
            </trkpt>
            <trkpt lon="98.890229" lat="18.823674">
                <ele>1521.423584</ele>
                <time>2011-02-19T07:17:31Z</time>
            </trkpt>
            <trkpt lon="98.890458" lat="18.823384">
                <ele>1521.423584</ele>
                <time>2011-02-19T07:17:37Z</time>
            </trkpt>
            <trkpt lon="98.890635" lat="18.823333">
                <ele>1521.904297</ele>
                <time>2011-02-19T07:17:40Z</time>
            </trkpt>
            <trkpt lon="98.892032" lat="18.823603">
                <ele>1521.904297</ele>
                <time>2011-02-19T07:18:08Z</time>
            </trkpt>
            <trkpt lon="98.892422" lat="18.823810">
                <ele>1514.694336</ele>
                <time>2011-02-19T07:18:17Z</time>
            </trkpt>
            <trkpt lon="98.893709" lat="18.825091">
                <ele>1504.120117</ele>
                <time>2011-02-19T07:18:53Z</time>
            </trkpt>
            <trkpt lon="98.894218" lat="18.825094">
                <ele>1501.716797</ele>
                <time>2011-02-19T07:19:02Z</time>
            </trkpt>
            <trkpt lon="98.894866" lat="18.825418">
                <ele>1496.429443</ele>
                <time>2011-02-19T07:19:15Z</time>
            </trkpt>
            <trkpt lon="98.895392" lat="18.826432">
                <ele>1485.854981</ele>
                <time>2011-02-19T07:19:36Z</time>
            </trkpt>
            <trkpt lon="98.895536" lat="18.826583">
                <ele>1480.086914</ele>
                <time>2011-02-19T07:20:00Z</time>
            </trkpt>
            <trkpt lon="98.897236" lat="18.827264">
                <ele>1459.418701</ele>
                <time>2011-02-19T07:20:23Z</time>
            </trkpt>
            <trkpt lon="98.897517" lat="18.827116">
                <ele>1455.573486</ele>
                <time>2011-02-19T07:20:30Z</time>
            </trkpt>
            <trkpt lon="98.897901" lat="18.827132">
                <ele>1449.324707</ele>
                <time>2011-02-19T07:20:40Z</time>
            </trkpt>
            <trkpt lon="98.898214" lat="18.827685">
                <ele>1446.921387</ele>
                <time>2011-02-19T07:20:52Z</time>
            </trkpt>
            <trkpt lon="98.898421" lat="18.828404">
                <ele>1447.882812</ele>
                <time>2011-02-19T07:21:04Z</time>
            </trkpt>
            <trkpt lon="98.898476" lat="18.829544">
                <ele>1451.728027</ele>
                <time>2011-02-19T07:21:24Z</time>
            </trkpt>
            <trkpt lon="98.898626" lat="18.830271">
                <ele>1449.324707</ele>
                <time>2011-02-19T07:21:49Z</time>
            </trkpt>
            <trkpt lon="98.898160" lat="18.830271">
                <ele>1445.960205</ele>
                <time>2011-02-19T07:22:06Z</time>
            </trkpt>
            <trkpt lon="98.897924" lat="18.830428">
                <ele>1446.440918</ele>
                <time>2011-02-19T07:22:11Z</time>
            </trkpt>
            <trkpt lon="98.897166" lat="18.830750">
                <ele>1429.617676</ele>
                <time>2011-02-19T07:22:21Z</time>
            </trkpt>
            <trkpt lon="98.896168" lat="18.831509">
                <ele>1431.059814</ele>
                <time>2011-02-19T07:22:33Z</time>
            </trkpt>
            <trkpt lon="98.895449" lat="18.831552">
                <ele>1436.347168</ele>
                <time>2011-02-19T07:22:47Z</time>
            </trkpt>
            <trkpt lon="98.895409" lat="18.831797">
                <ele>1438.269775</ele>
                <time>2011-02-19T07:23:12Z</time>
            </trkpt>
            <trkpt lon="98.895814" lat="18.832417">
                <ele>1431.540283</ele>
                <time>2011-02-19T07:23:54Z</time>
            </trkpt>
            <trkpt lon="98.896002" lat="18.832674">
                <ele>1417.601074</ele>
                <time>2011-02-19T07:24:04Z</time>
            </trkpt>
            <trkpt lon="98.897989" lat="18.834101">
                <ele>1419.043213</ele>
                <time>2011-02-19T07:24:35Z</time>
            </trkpt>
            <trkpt lon="98.897951" lat="18.834280">
                <ele>1420.966064</ele>
                <time>2011-02-19T07:24:45Z</time>
            </trkpt>
            <trkpt lon="98.897934" lat="18.834521">
                <ele>1417.601074</ele>
                <time>2011-02-19T07:24:57Z</time>
            </trkpt>
            <trkpt lon="98.897605" lat="18.834833">
                <ele>1420.485352</ele>
                <time>2011-02-19T07:25:15Z</time>
            </trkpt>
            <trkpt lon="98.895966" lat="18.834579">
                <ele>1409.910644</ele>
                <time>2011-02-19T07:26:04Z</time>
            </trkpt>
            <trkpt lon="98.895439" lat="18.834618">
                <ele>1412.313965</ele>
                <time>2011-02-19T07:26:14Z</time>
            </trkpt>
            <trkpt lon="98.896026" lat="18.835532">
                <ele>1396.932861</ele>
                <time>2011-02-19T07:26:51Z</time>
            </trkpt>
            <trkpt lon="98.895581" lat="18.837177">
                <ele>1382.993652</ele>
                <time>2011-02-19T07:27:15Z</time>
            </trkpt>
            <trkpt lon="98.895792" lat="18.837301">
                <ele>1377.226074</ele>
                <time>2011-02-19T07:27:23Z</time>
            </trkpt>
            <trkpt lon="98.896533" lat="18.837142">
                <ele>1368.573975</ele>
                <time>2011-02-19T07:27:38Z</time>
            </trkpt>
            <trkpt lon="98.895732" lat="18.837848">
                <ele>1359.922119</ele>
                <time>2011-02-19T07:27:58Z</time>
            </trkpt>
            <trkpt lon="98.895729" lat="18.837984">
                <ele>1358.960938</ele>
                <time>2011-02-19T07:28:02Z</time>
            </trkpt>
            <trkpt lon="98.896786" lat="18.838020">
                <ele>1345.502441</ele>
                <time>2011-02-19T07:28:46Z</time>
            </trkpt>
            <trkpt lon="98.897448" lat="18.837294">
                <ele>1345.021729</ele>
                <time>2011-02-19T07:29:04Z</time>
            </trkpt>
            <trkpt lon="98.897471" lat="18.836920">
                <ele>1344.541016</ele>
                <time>2011-02-19T07:29:19Z</time>
            </trkpt>
            <trkpt lon="98.897545" lat="18.836681">
                <ele>1342.137939</ele>
                <time>2011-02-19T07:29:28Z</time>
            </trkpt>
            <trkpt lon="98.897739" lat="18.836725">
                <ele>1339.253662</ele>
                <time>2011-02-19T07:29:33Z</time>
            </trkpt>
            <trkpt lon="98.898227" lat="18.837264">
                <ele>1333.005127</ele>
                <time>2011-02-19T07:29:49Z</time>
            </trkpt>
            <trkpt lon="98.898464" lat="18.837936">
                <ele>1333.485840</ele>
                <time>2011-02-19T07:30:20Z</time>
            </trkpt>
            <trkpt lon="98.898257" lat="18.837127">
                <ele>1334.447266</ele>
                <time>2011-02-19T07:31:28Z</time>
            </trkpt>
            <trkpt lon="98.898343" lat="18.837234">
                <ele>1333.005127</ele>
                <time>2011-02-19T07:31:36Z</time>
            </trkpt>
            <trkpt lon="98.898486" lat="18.838030">
                <ele>1330.602051</ele>
                <time>2011-02-19T07:32:06Z</time>
            </trkpt>
            <trkpt lon="98.898693" lat="18.838191">
                <ele>1332.043945</ele>
                <time>2011-02-19T07:32:22Z</time>
            </trkpt>
            <trkpt lon="98.898705" lat="18.838273">
                <ele>1331.563232</ele>
                <time>2011-02-19T07:32:27Z</time>
            </trkpt>
            <trkpt lon="98.898482" lat="18.838465">
                <ele>1331.563232</ele>
                <time>2011-02-19T07:32:46Z</time>
            </trkpt>
            <trkpt lon="98.898367" lat="18.839046">
                <ele>1336.850342</ele>
                <time>2011-02-19T07:33:23Z</time>
            </trkpt>
            <trkpt lon="98.898338" lat="18.839196">
                <ele>1337.331055</ele>
                <time>2011-02-19T07:33:32Z</time>
            </trkpt>
            <trkpt lon="98.898006" lat="18.839395">
                <ele>1340.695801</ele>
                <time>2011-02-19T07:33:57Z</time>
            </trkpt>
            <trkpt lon="98.897991" lat="18.839472">
                <ele>1344.060547</ele>
                <time>2011-02-19T07:34:03Z</time>
            </trkpt>
            <trkpt lon="98.898021" lat="18.839649">
                <ele>1344.060547</ele>
                <time>2011-02-19T07:34:16Z</time>
            </trkpt>
            <trkpt lon="98.898177" lat="18.840046">
                <ele>1349.828369</ele>
                <time>2011-02-19T07:35:19Z</time>
            </trkpt>
            <trkpt lon="98.898142" lat="18.840151">
                <ele>1349.828369</ele>
                <time>2011-02-19T07:35:33Z</time>
            </trkpt>
            <trkpt lon="98.897901" lat="18.840204">
                <ele>1352.231445</ele>
                <time>2011-02-19T07:36:24Z</time>
            </trkpt>
            <trkpt lon="98.897705" lat="18.839881">
                <ele>1351.270264</ele>
                <time>2011-02-19T07:36:39Z</time>
            </trkpt>
            <trkpt lon="98.896558" lat="18.838830">
                <ele>1352.712158</ele>
                <time>2011-02-19T07:37:29Z</time>
            </trkpt>
            <trkpt lon="98.896564" lat="18.838817">
                <ele>1352.231445</ele>
                <time>2011-02-19T07:37:34Z</time>
            </trkpt>
            <trkpt lon="98.896473" lat="18.838932">
                <ele>1353.673584</ele>
                <time>2011-02-19T07:41:45Z</time>
            </trkpt>
            <trkpt lon="98.896586" lat="18.838792">
                <ele>1350.309082</ele>
                <time>2011-02-19T07:45:21Z</time>
            </trkpt>
            <trkpt lon="98.896478" lat="18.838933">
                <ele>1353.673584</ele>
                <time>2011-02-19T07:46:40Z</time>
            </trkpt>
            <trkpt lon="98.896386" lat="18.838833">
                <ele>1352.231445</ele>
                <time>2011-02-19T07:51:15Z</time>
            </trkpt>
            <trkpt lon="98.896388" lat="18.839033">
                <ele>1355.115479</ele>
                <time>2011-02-19T07:51:58Z</time>
            </trkpt>
            <trkpt lon="98.896750" lat="18.839556">
                <ele>1359.441650</ele>
                <time>2011-02-19T07:52:37Z</time>
            </trkpt>
            <trkpt lon="98.897098" lat="18.839922">
                <ele>1355.115479</ele>
                <time>2011-02-19T07:53:02Z</time>
            </trkpt>
            <trkpt lon="98.897400" lat="18.841137">
                <ele>1356.557617</ele>
                <time>2011-02-19T07:53:58Z</time>
            </trkpt>
            <trkpt lon="98.898719" lat="18.841169">
                <ele>1358.480225</ele>
                <time>2011-02-19T07:54:11Z</time>
            </trkpt>
            <trkpt lon="98.899302" lat="18.841971">
                <ele>1363.767334</ele>
                <time>2011-02-19T07:55:13Z</time>
            </trkpt>
            <trkpt lon="98.899538" lat="18.842035">
                <ele>1364.248047</ele>
                <time>2011-02-19T07:55:27Z</time>
            </trkpt>
            <trkpt lon="98.899632" lat="18.842120">
                <ele>1363.767334</ele>
                <time>2011-02-19T07:55:36Z</time>
            </trkpt>
            <trkpt lon="98.899455" lat="18.842617">
                <ele>1363.767334</ele>
                <time>2011-02-19T07:56:02Z</time>
            </trkpt>
            <trkpt lon="98.899374" lat="18.842910">
                <ele>1360.883545</ele>
                <time>2011-02-19T07:56:14Z</time>
            </trkpt>
            <trkpt lon="98.898805" lat="18.843749">
                <ele>1359.441650</ele>
                <time>2011-02-19T07:56:48Z</time>
            </trkpt>
            <trkpt lon="98.898847" lat="18.843898">
                <ele>1358.960938</ele>
                <time>2011-02-19T07:56:58Z</time>
            </trkpt>
            <trkpt lon="98.899364" lat="18.843717">
                <ele>1358.480225</ele>
                <time>2011-02-19T07:57:12Z</time>
            </trkpt>
            <trkpt lon="98.899749" lat="18.843389">
                <ele>1352.231445</ele>
                <time>2011-02-19T07:57:28Z</time>
            </trkpt>
            <trkpt lon="98.899812" lat="18.844036">
                <ele>1342.618652</ele>
                <time>2011-02-19T07:57:44Z</time>
            </trkpt>
            <trkpt lon="98.899768" lat="18.844256">
                <ele>1340.215332</ele>
                <time>2011-02-19T07:57:50Z</time>
            </trkpt>
            <trkpt lon="98.899547" lat="18.844376">
                <ele>1336.369873</ele>
                <time>2011-02-19T07:57:58Z</time>
            </trkpt>
            <trkpt lon="98.899477" lat="18.845277">
                <ele>1322.430664</ele>
                <time>2011-02-19T07:58:20Z</time>
            </trkpt>
            <trkpt lon="98.899628" lat="18.845411">
                <ele>1320.027344</ele>
                <time>2011-02-19T07:58:29Z</time>
            </trkpt>
            <trkpt lon="98.899236" lat="18.845622">
                <ele>1309.933594</ele>
                <time>2011-02-19T07:58:51Z</time>
            </trkpt>
            <trkpt lon="98.899315" lat="18.845818">
                <ele>1308.011231</ele>
                <time>2011-02-19T07:58:57Z</time>
            </trkpt>
            <trkpt lon="98.898903" lat="18.846272">
                <ele>1301.762451</ele>
                <time>2011-02-19T07:59:19Z</time>
            </trkpt>
            <trkpt lon="98.898670" lat="18.847091">
                <ele>1284.939453</ele>
                <time>2011-02-19T07:59:46Z</time>
            </trkpt>
            <trkpt lon="98.899291" lat="18.847337">
                <ele>1284.458740</ele>
                <time>2011-02-19T07:59:57Z</time>
            </trkpt>
            <trkpt lon="98.900574" lat="18.848132">
                <ele>1284.939453</ele>
                <time>2011-02-19T08:00:06Z</time>
            </trkpt>
            <trkpt lon="98.900687" lat="18.848098">
                <ele>1284.458740</ele>
                <time>2011-02-19T08:00:14Z</time>
            </trkpt>
            <trkpt lon="98.900686" lat="18.848059">
                <ele>1280.613525</ele>
                <time>2011-02-19T08:00:27Z</time>
            </trkpt>
            <trkpt lon="98.901022" lat="18.848123">
                <ele>1273.403564</ele>
                <time>2011-02-19T08:00:44Z</time>
            </trkpt>
            <trkpt lon="98.900925" lat="18.849086">
                <ele>1258.022461</ele>
                <time>2011-02-19T08:01:07Z</time>
            </trkpt>
            <trkpt lon="98.901303" lat="18.849560">
                <ele>1250.332031</ele>
                <time>2011-02-19T08:01:17Z</time>
            </trkpt>
            <trkpt lon="98.901883" lat="18.851167">
                <ele>1229.663574</ele>
                <time>2011-02-19T08:01:59Z</time>
            </trkpt>
            <trkpt lon="98.904488" lat="18.853410">
                <ele>1184.481689</ele>
                <time>2011-02-19T08:03:49Z</time>
            </trkpt>
            <trkpt lon="98.905459" lat="18.853595">
                <ele>1172.945801</ele>
                <time>2011-02-19T08:04:37Z</time>
            </trkpt>
            <trkpt lon="98.905542" lat="18.853667">
                <ele>1170.542481</ele>
                <time>2011-02-19T08:04:42Z</time>
            </trkpt>
            <trkpt lon="98.905800" lat="18.854723">
                <ele>1149.874268</ele>
                <time>2011-02-19T08:05:08Z</time>
            </trkpt>
            <trkpt lon="98.905772" lat="18.855134">
                <ele>1147.951416</ele>
                <time>2011-02-19T08:05:17Z</time>
            </trkpt>
            <trkpt lon="98.905744" lat="18.855294">
                <ele>1145.067383</ele>
                <time>2011-02-19T08:05:22Z</time>
            </trkpt>
            <trkpt lon="98.905771" lat="18.855749">
                <ele>1139.299561</ele>
                <time>2011-02-19T08:05:35Z</time>
            </trkpt>
            <trkpt lon="98.905461" lat="18.857132">
                <ele>1118.631348</ele>
                <time>2011-02-19T08:06:05Z</time>
            </trkpt>
            <trkpt lon="98.905457" lat="18.858995">
                <ele>1097.962891</ele>
                <time>2011-02-19T08:06:38Z</time>
            </trkpt>
            <trkpt lon="98.905478" lat="18.859044">
                <ele>1097.001465</ele>
                <time>2011-02-19T08:06:40Z</time>
            </trkpt>
            <trkpt lon="98.905057" lat="18.859181">
                <ele>1084.023926</ele>
                <time>2011-02-19T08:07:01Z</time>
            </trkpt>
            <trkpt lon="98.904819" lat="18.859038">
                <ele>1076.813965</ele>
                <time>2011-02-19T08:07:11Z</time>
            </trkpt>
            <trkpt lon="98.903752" lat="18.857919">
                <ele>1049.416260</ele>
                <time>2011-02-19T08:07:45Z</time>
            </trkpt>
            <trkpt lon="98.903933" lat="18.857716">
                <ele>1048.935547</ele>
                <time>2011-02-19T08:08:52Z</time>
            </trkpt>
            <trkpt lon="98.903980" lat="18.857690">
                <ele>1045.571045</ele>
                <time>2011-02-19T08:09:10Z</time>
            </trkpt>
            <trkpt lon="98.903852" lat="18.858250">
                <ele>1037.880615</ele>
                <time>2011-02-19T08:09:33Z</time>
            </trkpt>
            <trkpt lon="98.903936" lat="18.858902">
                <ele>1026.344727</ele>
                <time>2011-02-19T08:09:54Z</time>
            </trkpt>
            <trkpt lon="98.903728" lat="18.859338">
                <ele>1026.344727</ele>
                <time>2011-02-19T08:10:23Z</time>
            </trkpt>
            <trkpt lon="98.903530" lat="18.859367">
                <ele>1029.709229</ele>
                <time>2011-02-19T08:10:55Z</time>
            </trkpt>
            <trkpt lon="98.903222" lat="18.859454">
                <ele>1030.670654</ele>
                <time>2011-02-19T08:11:20Z</time>
            </trkpt>
            <trkpt lon="98.902861" lat="18.859678">
                <ele>1034.035156</ele>
                <time>2011-02-19T08:12:05Z</time>
            </trkpt>
            <trkpt lon="98.902772" lat="18.859748">
                <ele>1033.073731</ele>
                <time>2011-02-19T08:12:16Z</time>
            </trkpt>
            <trkpt lon="98.902407" lat="18.859681">
                <ele>1024.902832</ele>
                <time>2011-02-19T08:12:32Z</time>
            </trkpt>
            <trkpt lon="98.901919" lat="18.859292">
                <ele>1015.289551</ele>
                <time>2011-02-19T08:12:48Z</time>
            </trkpt>
            <trkpt lon="98.901551" lat="18.858613">
                <ele>1005.195801</ele>
                <time>2011-02-19T08:13:04Z</time>
            </trkpt>
            <trkpt lon="98.901440" lat="18.858383">
                <ele>1000.869629</ele>
                <time>2011-02-19T08:13:09Z</time>
            </trkpt>
            <trkpt lon="98.900889" lat="18.858515">
                <ele>1009.041016</ele>
                <time>2011-02-19T08:13:51Z</time>
            </trkpt>
            <trkpt lon="98.900578" lat="18.858577">
                <ele>1010.482910</ele>
                <time>2011-02-19T08:14:56Z</time>
            </trkpt>
            <trkpt lon="98.900229" lat="18.858788">
                <ele>1016.250732</ele>
                <time>2011-02-19T08:16:16Z</time>
            </trkpt>
            <trkpt lon="98.899337" lat="18.858105">
                <ele>998.466309</ele>
                <time>2011-02-19T08:17:49Z</time>
            </trkpt>
            <trkpt lon="98.898735" lat="18.858076">
                <ele>993.179199</ele>
                <time>2011-02-19T08:18:07Z</time>
            </trkpt>
            <trkpt lon="98.898501" lat="18.858232">
                <ele>989.814697</ele>
                <time>2011-02-19T08:18:17Z</time>
            </trkpt>
            <trkpt lon="98.898493" lat="18.858354">
                <ele>986.449951</ele>
                <time>2011-02-19T08:18:22Z</time>
            </trkpt>
            <trkpt lon="98.898202" lat="18.858419">
                <ele>981.162842</ele>
                <time>2011-02-19T08:18:32Z</time>
            </trkpt>
            <trkpt lon="98.897698" lat="18.859174">
                <ele>971.068848</ele>
                <time>2011-02-19T08:18:57Z</time>
            </trkpt>
            <trkpt lon="98.897398" lat="18.858869">
                <ele>961.455810</ele>
                <time>2011-02-19T08:19:12Z</time>
            </trkpt>
            <trkpt lon="98.896812" lat="18.858823">
                <ele>960.013672</ele>
                <time>2011-02-19T08:19:21Z</time>
            </trkpt>
            <trkpt lon="98.896245" lat="18.858483">
                <ele>952.322998</ele>
                <time>2011-02-19T08:19:38Z</time>
            </trkpt>
            <trkpt lon="98.895914" lat="18.857696">
                <ele>942.229492</ele>
                <time>2011-02-19T08:20:19Z</time>
            </trkpt>
            <trkpt lon="98.895483" lat="18.857609">
                <ele>941.748779</ele>
                <time>2011-02-19T08:20:33Z</time>
            </trkpt>
            <trkpt lon="98.894805" lat="18.857323">
                <ele>931.174316</ele>
                <time>2011-02-19T08:20:51Z</time>
            </trkpt>
            <trkpt lon="98.894430" lat="18.857443">
                <ele>929.732178</ele>
                <time>2011-02-19T08:21:00Z</time>
            </trkpt>
            <trkpt lon="98.894199" lat="18.858303">
                <ele>924.445068</ele>
                <time>2011-02-19T08:21:17Z</time>
            </trkpt>
            <trkpt lon="98.893521" lat="18.858292">
                <ele>915.312500</ele>
                <time>2011-02-19T08:21:34Z</time>
            </trkpt>
            <trkpt lon="98.893189" lat="18.857993">
                <ele>907.621826</ele>
                <time>2011-02-19T08:21:44Z</time>
            </trkpt>
            <trkpt lon="98.893074" lat="18.857244">
                <ele>898.489258</ele>
                <time>2011-02-19T08:22:05Z</time>
            </trkpt>
            <trkpt lon="98.892536" lat="18.857443">
                <ele>896.086182</ele>
                <time>2011-02-19T08:22:34Z</time>
            </trkpt>
            <trkpt lon="98.892147" lat="18.857378">
                <ele>901.373291</ele>
                <time>2011-02-19T08:23:07Z</time>
            </trkpt>
            <trkpt lon="98.891985" lat="18.857216">
                <ele>893.682861</ele>
                <time>2011-02-19T08:24:09Z</time>
            </trkpt>
            <trkpt lon="98.891871" lat="18.856697">
                <ele>889.837402</ele>
                <time>2011-02-19T08:24:22Z</time>
            </trkpt>
            <trkpt lon="98.891452" lat="18.856939">
                <ele>892.721680</ele>
                <time>2011-02-19T08:25:04Z</time>
            </trkpt>
            <trkpt lon="98.891075" lat="18.857017">
                <ele>893.202148</ele>
                <time>2011-02-19T08:25:25Z</time>
            </trkpt>
            <trkpt lon="98.890803" lat="18.857011">
                <ele>891.760010</ele>
                <time>2011-02-19T08:25:35Z</time>
            </trkpt>
            <trkpt lon="98.890193" lat="18.856732">
                <ele>883.108154</ele>
                <time>2011-02-19T08:25:54Z</time>
            </trkpt>
            <trkpt lon="98.890052" lat="18.857266">
                <ele>890.798584</ele>
                <time>2011-02-19T08:27:35Z</time>
            </trkpt>
            <trkpt lon="98.889426" lat="18.857644">
                <ele>898.489258</ele>
                <time>2011-02-19T08:29:06Z</time>
            </trkpt>
            <trkpt lon="98.889073" lat="18.857652">
                <ele>899.931397</ele>
                <time>2011-02-19T08:30:01Z</time>
            </trkpt>
            <trkpt lon="98.889014" lat="18.857636">
                <ele>898.969971</ele>
                <time>2011-02-19T08:30:10Z</time>
            </trkpt>
            <trkpt lon="98.888743" lat="18.857515">
                <ele>897.528076</ele>
                <time>2011-02-19T08:30:21Z</time>
            </trkpt>
            <trkpt lon="98.887829" lat="18.856624">
                <ele>883.108154</ele>
                <time>2011-02-19T08:30:59Z</time>
            </trkpt>
            <trkpt lon="98.887175" lat="18.855589">
                <ele>867.727051</ele>
                <time>2011-02-19T08:31:30Z</time>
            </trkpt>
            <trkpt lon="98.887029" lat="18.855565">
                <ele>867.727051</ele>
                <time>2011-02-19T08:31:35Z</time>
            </trkpt>
            <trkpt lon="98.886939" lat="18.855698">
                <ele>870.611084</ele>
                <time>2011-02-19T08:32:05Z</time>
            </trkpt>
            <trkpt lon="98.886795" lat="18.855740">
                <ele>869.649902</ele>
                <time>2011-02-19T08:32:18Z</time>
            </trkpt>
            <trkpt lon="98.886430" lat="18.855488">
                <ele>867.246582</ele>
                <time>2011-02-19T08:32:40Z</time>
            </trkpt>
            <trkpt lon="98.885856" lat="18.854734">
                <ele>867.246582</ele>
                <time>2011-02-19T08:33:09Z</time>
            </trkpt>
            <trkpt lon="98.885795" lat="18.854380">
                <ele>867.727051</ele>
                <time>2011-02-19T08:33:23Z</time>
            </trkpt>
            <trkpt lon="98.885763" lat="18.854312">
                <ele>866.765869</ele>
                <time>2011-02-19T08:33:27Z</time>
            </trkpt>
            <trkpt lon="98.885531" lat="18.854333">
                <ele>867.727051</ele>
                <time>2011-02-19T08:33:41Z</time>
            </trkpt>
            <trkpt lon="98.885062" lat="18.854086">
                <ele>863.881836</ele>
                <time>2011-02-19T08:33:59Z</time>
            </trkpt>
            <trkpt lon="98.884593" lat="18.853645">
                <ele>864.362549</ele>
                <time>2011-02-19T08:35:21Z</time>
            </trkpt>
            <trkpt lon="98.884571" lat="18.853460">
                <ele>867.727051</ele>
                <time>2011-02-19T08:35:42Z</time>
            </trkpt>
            <trkpt lon="98.884438" lat="18.853237">
                <ele>868.688477</ele>
                <time>2011-02-19T08:36:14Z</time>
            </trkpt>
            <trkpt lon="98.884381" lat="18.853197">
                <ele>868.688477</ele>
                <time>2011-02-19T08:36:24Z</time>
            </trkpt>
            <trkpt lon="98.883988" lat="18.853019">
                <ele>866.765869</ele>
                <time>2011-02-19T08:36:44Z</time>
            </trkpt>
            <trkpt lon="98.883697" lat="18.852187">
                <ele>873.014404</ele>
                <time>2011-02-19T08:38:01Z</time>
            </trkpt>
            <trkpt lon="98.883654" lat="18.851914">
                <ele>872.533691</ele>
                <time>2011-02-19T08:38:38Z</time>
            </trkpt>
            <trkpt lon="98.883229" lat="18.851635">
                <ele>874.937012</ele>
                <time>2011-02-19T08:39:08Z</time>
            </trkpt>
            <trkpt lon="98.882565" lat="18.850782">
                <ele>883.588867</ele>
                <time>2011-02-19T08:41:47Z</time>
            </trkpt>
            <trkpt lon="98.882339" lat="18.850496">
                <ele>882.627685</ele>
                <time>2011-02-19T08:42:28Z</time>
            </trkpt>
            <trkpt lon="98.882458" lat="18.850821">
                <ele>881.666260</ele>
                <time>2011-02-19T08:42:51Z</time>
            </trkpt>
            <trkpt lon="98.882576" lat="18.850955">
                <ele>876.859863</ele>
                <time>2011-02-19T08:43:00Z</time>
            </trkpt>
            <trkpt lon="98.883678" lat="18.851874">
                <ele>869.169190</ele>
                <time>2011-02-19T08:43:52Z</time>
            </trkpt>
            <trkpt lon="98.883982" lat="18.852876">
                <ele>862.439941</ele>
                <time>2011-02-19T08:44:24Z</time>
            </trkpt>
            <trkpt lon="98.884403" lat="18.853130">
                <ele>864.843262</ele>
                <time>2011-02-19T08:44:46Z</time>
            </trkpt>
            <trkpt lon="98.884778" lat="18.853655">
                <ele>854.749268</ele>
                <time>2011-02-19T08:45:25Z</time>
            </trkpt>
            <trkpt lon="98.884850" lat="18.853990">
                <ele>852.345947</ele>
                <time>2011-02-19T08:45:49Z</time>
            </trkpt>
            <trkpt lon="98.884556" lat="18.854055">
                <ele>849.462158</ele>
                <time>2011-02-19T08:46:51Z</time>
            </trkpt>
            <trkpt lon="98.884767" lat="18.854344">
                <ele>854.749268</ele>
                <time>2011-02-19T08:47:27Z</time>
            </trkpt>
            <trkpt lon="98.884730" lat="18.854726">
                <ele>858.594482</ele>
                <time>2011-02-19T08:48:26Z</time>
            </trkpt>
            <trkpt lon="98.884772" lat="18.855461">
                <ele>850.423584</ele>
                <time>2011-02-19T08:49:23Z</time>
            </trkpt>
            <trkpt lon="98.885031" lat="18.855489">
                <ele>850.423584</ele>
                <time>2011-02-19T08:49:32Z</time>
            </trkpt>
            <trkpt lon="98.885395" lat="18.855767">
                <ele>846.578369</ele>
                <time>2011-02-19T08:49:48Z</time>
            </trkpt>
            <trkpt lon="98.885409" lat="18.856003">
                <ele>843.694092</ele>
                <time>2011-02-19T08:49:57Z</time>
            </trkpt>
            <trkpt lon="98.885216" lat="18.856151">
                <ele>841.290772</ele>
                <time>2011-02-19T08:50:06Z</time>
            </trkpt>
            <trkpt lon="98.885771" lat="18.856390">
                <ele>850.423584</ele>
                <time>2011-02-19T08:51:38Z</time>
            </trkpt>
            <trkpt lon="98.885918" lat="18.856681">
                <ele>850.904053</ele>
                <time>2011-02-19T08:52:18Z</time>
            </trkpt>
            <trkpt lon="98.886095" lat="18.857722">
                <ele>843.694092</ele>
                <time>2011-02-19T08:54:44Z</time>
            </trkpt>
            <trkpt lon="98.886023" lat="18.858051">
                <ele>844.175049</ele>
                <time>2011-02-19T08:54:55Z</time>
            </trkpt>
            <trkpt lon="98.886276" lat="18.858227">
                <ele>850.423584</ele>
                <time>2011-02-19T08:55:41Z</time>
            </trkpt>
            <trkpt lon="98.885832" lat="18.858342">
                <ele>861.478760</ele>
                <time>2011-02-19T08:57:08Z</time>
            </trkpt>
            <trkpt lon="98.885695" lat="18.858344">
                <ele>861.478760</ele>
                <time>2011-02-19T08:57:31Z</time>
            </trkpt>
            <trkpt lon="98.885230" lat="18.858120">
                <ele>862.920654</ele>
                <time>2011-02-19T08:59:01Z</time>
            </trkpt>
            <trkpt lon="98.884696" lat="18.857998">
                <ele>861.478760</ele>
                <time>2011-02-19T08:59:47Z</time>
            </trkpt>
            <trkpt lon="98.883302" lat="18.857136">
                <ele>857.152588</ele>
                <time>2011-02-19T09:00:40Z</time>
            </trkpt>
            <trkpt lon="98.882846" lat="18.857277">
                <ele>859.075195</ele>
                <time>2011-02-19T09:01:04Z</time>
            </trkpt>
            <trkpt lon="98.882995" lat="18.857446">
                <ele>859.555908</ele>
                <time>2011-02-19T09:01:19Z</time>
            </trkpt>
            <trkpt lon="98.883057" lat="18.857657">
                <ele>857.152588</ele>
                <time>2011-02-19T09:01:27Z</time>
            </trkpt>
            <trkpt lon="98.882787" lat="18.857832">
                <ele>849.942871</ele>
                <time>2011-02-19T09:01:44Z</time>
            </trkpt>
            <trkpt lon="98.882796" lat="18.857942">
                <ele>849.942871</ele>
                <time>2011-02-19T09:01:48Z</time>
            </trkpt>
            <trkpt lon="98.882953" lat="18.858109">
                <ele>850.904053</ele>
                <time>2011-02-19T09:01:59Z</time>
            </trkpt>
            <trkpt lon="98.883183" lat="18.858276">
                <ele>848.020264</ele>
                <time>2011-02-19T09:02:10Z</time>
            </trkpt>
            <trkpt lon="98.883476" lat="18.858938">
                <ele>843.213379</ele>
                <time>2011-02-19T09:03:01Z</time>
            </trkpt>
            <trkpt lon="98.883517" lat="18.859342">
                <ele>838.887695</ele>
                <time>2011-02-19T09:03:17Z</time>
            </trkpt>
            <trkpt lon="98.883132" lat="18.859673">
                <ele>833.119629</ele>
                <time>2011-02-19T09:03:34Z</time>
            </trkpt>
            <trkpt lon="98.882332" lat="18.860220">
                <ele>815.816162</ele>
                <time>2011-02-19T09:04:17Z</time>
            </trkpt>
            <trkpt lon="98.882763" lat="18.860053">
                <ele>812.932129</ele>
                <time>2011-02-19T09:07:50Z</time>
            </trkpt>
            <trkpt lon="98.882723" lat="18.860068">
                <ele>814.854736</ele>
                <time>2011-02-19T09:08:32Z</time>
            </trkpt>
            <trkpt lon="98.882647" lat="18.860098">
                <ele>811.489990</ele>
                <time>2011-02-19T09:10:22Z</time>
            </trkpt>
            <trkpt lon="98.882575" lat="18.860124">
                <ele>811.970703</ele>
                <time>2011-02-19T09:11:11Z</time>
            </trkpt>
            <trkpt lon="98.882661" lat="18.860059">
                <ele>811.970703</ele>
                <time>2011-02-19T09:12:00Z</time>
            </trkpt>
            <trkpt lon="98.883143" lat="18.860509">
                <ele>825.428955</ele>
                <time>2011-02-19T09:21:21Z</time>
            </trkpt>
            <trkpt lon="98.883447" lat="18.860740">
                <ele>832.639160</ele>
                <time>2011-02-19T09:22:16Z</time>
            </trkpt>
            <trkpt lon="98.883994" lat="18.861314">
                <ele>846.097656</ele>
                <time>2011-02-19T09:24:25Z</time>
            </trkpt>
            <trkpt lon="98.883737" lat="18.861394">
                <ele>848.981445</ele>
                <time>2011-02-19T09:25:04Z</time>
            </trkpt>
            <trkpt lon="98.883462" lat="18.861297">
                <ele>850.904053</ele>
                <time>2011-02-19T09:26:52Z</time>
            </trkpt>
            <trkpt lon="98.883156" lat="18.861295">
                <ele>851.865478</ele>
                <time>2011-02-19T09:27:18Z</time>
            </trkpt>
            <trkpt lon="98.880796" lat="18.861304">
                <ele>845.136231</ele>
                <time>2011-02-19T09:29:04Z</time>
            </trkpt>
            <trkpt lon="98.881257" lat="18.861853">
                <ele>844.175049</ele>
                <time>2011-02-19T09:29:33Z</time>
            </trkpt>
            <trkpt lon="98.881414" lat="18.862330">
                <ele>842.732910</ele>
                <time>2011-02-19T09:29:51Z</time>
            </trkpt>
            <trkpt lon="98.880840" lat="18.862997">
                <ele>842.732910</ele>
                <time>2011-02-19T09:30:22Z</time>
            </trkpt>
            <trkpt lon="98.880891" lat="18.863337">
                <ele>845.616943</ele>
                <time>2011-02-19T09:30:42Z</time>
            </trkpt>
            <trkpt lon="98.880762" lat="18.863489">
                <ele>847.058838</ele>
                <time>2011-02-19T09:30:54Z</time>
            </trkpt>
            <trkpt lon="98.880505" lat="18.863746">
                <ele>848.020264</ele>
                <time>2011-02-19T09:31:12Z</time>
            </trkpt>
            <trkpt lon="98.880153" lat="18.864010">
                <ele>846.097656</ele>
                <time>2011-02-19T09:31:30Z</time>
            </trkpt>
            <trkpt lon="98.879993" lat="18.864490">
                <ele>844.655518</ele>
                <time>2011-02-19T09:32:33Z</time>
            </trkpt>
            <trkpt lon="98.880890" lat="18.864346">
                <ele>847.058838</ele>
                <time>2011-02-19T09:33:15Z</time>
            </trkpt>
            <trkpt lon="98.881197" lat="18.864299">
                <ele>845.136231</ele>
                <time>2011-02-19T09:33:32Z</time>
            </trkpt>
            <trkpt lon="98.881153" lat="18.864876">
                <ele>835.522949</ele>
                <time>2011-02-19T09:33:53Z</time>
            </trkpt>
            <trkpt lon="98.882006" lat="18.864544">
                <ele>842.252197</ele>
                <time>2011-02-19T09:34:41Z</time>
            </trkpt>
            <trkpt lon="98.883013" lat="18.864857">
                <ele>858.114014</ele>
                <time>2011-02-19T09:37:21Z</time>
            </trkpt>
            <trkpt lon="98.883397" lat="18.865028">
                <ele>864.362549</ele>
                <time>2011-02-19T09:41:47Z</time>
            </trkpt>
            <trkpt lon="98.883397" lat="18.865159">
                <ele>864.843262</ele>
                <time>2011-02-19T09:42:09Z</time>
            </trkpt>
            <trkpt lon="98.882951" lat="18.865285">
                <ele>872.052978</ele>
                <time>2011-02-19T09:43:05Z</time>
            </trkpt>
            <trkpt lon="98.882246" lat="18.865821">
                <ele>880.224365</ele>
                <time>2011-02-19T09:46:05Z</time>
            </trkpt>
            <trkpt lon="98.882280" lat="18.866423">
                <ele>879.262940</ele>
                <time>2011-02-19T09:46:47Z</time>
            </trkpt>
            <trkpt lon="98.882627" lat="18.866860">
                <ele>868.688477</ele>
                <time>2011-02-19T09:47:11Z</time>
            </trkpt>
            <trkpt lon="98.882793" lat="18.866889">
                <ele>863.881836</ele>
                <time>2011-02-19T09:47:17Z</time>
            </trkpt>
            <trkpt lon="98.883957" lat="18.866537">
                <ele>848.020264</ele>
                <time>2011-02-19T09:47:49Z</time>
            </trkpt>
            <trkpt lon="98.884105" lat="18.867557">
                <ele>835.522949</ele>
                <time>2011-02-19T09:48:28Z</time>
            </trkpt>
            <trkpt lon="98.884092" lat="18.867680">
                <ele>830.716553</ele>
                <time>2011-02-19T09:48:37Z</time>
            </trkpt>
            <trkpt lon="98.884661" lat="18.868538">
                <ele>832.158447</ele>
                <time>2011-02-19T09:48:43Z</time>
            </trkpt>
            <trkpt lon="98.884579" lat="18.868319">
                <ele>834.081055</ele>
                <time>2011-02-19T09:49:03Z</time>
            </trkpt>
            <trkpt lon="98.884923" lat="18.868738">
                <ele>837.926269</ele>
                <time>2011-02-19T09:49:48Z</time>
            </trkpt>
            <trkpt lon="98.885147" lat="18.868923">
                <ele>840.329590</ele>
                <time>2011-02-19T09:50:02Z</time>
            </trkpt>
            <trkpt lon="98.885569" lat="18.869330">
                <ele>840.810059</ele>
                <time>2011-02-19T09:50:50Z</time>
            </trkpt>
            <trkpt lon="98.885949" lat="18.869746">
                <ele>832.639160</ele>
                <time>2011-02-19T09:51:41Z</time>
            </trkpt>
            <trkpt lon="98.887211" lat="18.869825">
                <ele>801.396240</ele>
                <time>2011-02-19T09:52:12Z</time>
            </trkpt>
            <trkpt lon="98.888062" lat="18.870706">
                <ele>788.418457</ele>
                <time>2011-02-19T09:52:46Z</time>
            </trkpt>
            <trkpt lon="98.888257" lat="18.870941">
                <ele>783.131103</ele>
                <time>2011-02-19T09:52:55Z</time>
            </trkpt>
            <trkpt lon="98.888160" lat="18.871560">
                <ele>771.595215</ele>
                <time>2011-02-19T09:53:14Z</time>
            </trkpt>
            <trkpt lon="98.889256" lat="18.873276">
                <ele>768.230713</ele>
                <time>2011-02-19T09:54:43Z</time>
            </trkpt>
            <trkpt lon="98.889522" lat="18.873620">
                <ele>765.346924</ele>
                <time>2011-02-19T09:55:29Z</time>
            </trkpt>
            <trkpt lon="98.890014" lat="18.873948">
                <ele>755.252930</ele>
                <time>2011-02-19T09:55:45Z</time>
            </trkpt>
            <trkpt lon="98.890226" lat="18.874349">
                <ele>749.965820</ele>
                <time>2011-02-19T09:55:54Z</time>
            </trkpt>
            <trkpt lon="98.890736" lat="18.874586">
                <ele>748.523682</ele>
                <time>2011-02-19T09:56:05Z</time>
            </trkpt>
            <trkpt lon="98.891732" lat="18.874771">
                <ele>735.545898</ele>
                <time>2011-02-19T09:56:30Z</time>
            </trkpt>
            <trkpt lon="98.891999" lat="18.874645">
                <ele>728.335938</ele>
                <time>2011-02-19T09:56:37Z</time>
            </trkpt>
            <trkpt lon="98.892191" lat="18.874361">
                <ele>727.855225</ele>
                <time>2011-02-19T09:56:44Z</time>
            </trkpt>
            <trkpt lon="98.892378" lat="18.874145">
                <ele>720.645508</ele>
                <time>2011-02-19T09:56:53Z</time>
            </trkpt>
            <trkpt lon="98.892756" lat="18.874193">
                <ele>713.916016</ele>
                <time>2011-02-19T09:57:03Z</time>
            </trkpt>
            <trkpt lon="98.893519" lat="18.874671">
                <ele>694.689697</ele>
                <time>2011-02-19T09:57:30Z</time>
            </trkpt>
            <trkpt lon="98.893572" lat="18.875133">
                <ele>698.534912</ele>
                <time>2011-02-19T09:58:06Z</time>
            </trkpt>
            <trkpt lon="98.893746" lat="18.875281">
                <ele>701.419190</ele>
                <time>2011-02-19T09:58:25Z</time>
            </trkpt>
            <trkpt lon="98.893849" lat="18.875335">
                <ele>700.938477</ele>
                <time>2011-02-19T09:58:43Z</time>
            </trkpt>
            <trkpt lon="98.893902" lat="18.875353">
                <ele>700.458008</ele>
                <time>2011-02-19T09:58:48Z</time>
            </trkpt>
            <trkpt lon="98.894297" lat="18.875387">
                <ele>693.728516</ele>
                <time>2011-02-19T09:59:07Z</time>
            </trkpt>
            <trkpt lon="98.894762" lat="18.876294">
                <ele>693.728516</ele>
                <time>2011-02-19T09:59:40Z</time>
            </trkpt>
            <trkpt lon="98.895022" lat="18.876559">
                <ele>689.402588</ele>
                <time>2011-02-19T09:59:54Z</time>
            </trkpt>
            <trkpt lon="98.895356" lat="18.876926">
                <ele>677.386231</ele>
                <time>2011-02-19T10:00:13Z</time>
            </trkpt>
            <trkpt lon="98.895642" lat="18.877026">
                <ele>680.270019</ele>
                <time>2011-02-19T10:00:18Z</time>
            </trkpt>
            <trkpt lon="98.896573" lat="18.877426">
                <ele>682.673340</ele>
                <time>2011-02-19T10:00:35Z</time>
            </trkpt>
            <trkpt lon="98.897055" lat="18.877763">
                <ele>685.076904</ele>
                <time>2011-02-19T10:01:09Z</time>
            </trkpt>
            <trkpt lon="98.897913" lat="18.878430">
                <ele>683.153809</ele>
                <time>2011-02-19T10:01:45Z</time>
            </trkpt>
            <trkpt lon="98.898877" lat="18.878850">
                <ele>668.253662</ele>
                <time>2011-02-19T10:02:18Z</time>
            </trkpt>
            <trkpt lon="98.899209" lat="18.879260">
                <ele>663.927490</ele>
                <time>2011-02-19T10:03:02Z</time>
            </trkpt>
            <trkpt lon="98.900450" lat="18.880061">
                <ele>642.298096</ele>
                <time>2011-02-19T10:05:09Z</time>
            </trkpt>
            <trkpt lon="98.901346" lat="18.880048">
                <ele>622.591065</ele>
                <time>2011-02-19T10:05:31Z</time>
            </trkpt>
            <trkpt lon="98.901860" lat="18.879842">
                <ele>628.358887</ele>
                <time>2011-02-19T10:05:51Z</time>
            </trkpt>
            <trkpt lon="98.902346" lat="18.879825">
                <ele>630.281494</ele>
                <time>2011-02-19T10:06:56Z</time>
            </trkpt>
            <trkpt lon="98.902522" lat="18.879978">
                <ele>626.436279</ele>
                <time>2011-02-19T10:07:40Z</time>
            </trkpt>
            <trkpt lon="98.903209" lat="18.881295">
                <ele>617.303711</ele>
                <time>2011-02-19T10:08:21Z</time>
            </trkpt>
            <trkpt lon="98.903084" lat="18.881993">
                <ele>610.574463</ele>
                <time>2011-02-19T10:08:40Z</time>
            </trkpt>
            <trkpt lon="98.903283" lat="18.882200">
                <ele>605.768066</ele>
                <time>2011-02-19T10:08:53Z</time>
            </trkpt>
            <trkpt lon="98.903229" lat="18.882313">
                <ele>604.806641</ele>
                <time>2011-02-19T10:08:58Z</time>
            </trkpt>
            <trkpt lon="98.902650" lat="18.882233">
                <ele>596.154785</ele>
                <time>2011-02-19T10:09:12Z</time>
            </trkpt>
            <trkpt lon="98.902205" lat="18.882037">
                <ele>583.176758</ele>
                <time>2011-02-19T10:10:06Z</time>
            </trkpt>
            <trkpt lon="98.902042" lat="18.882148">
                <ele>577.889648</ele>
                <time>2011-02-19T10:10:11Z</time>
            </trkpt>
            <trkpt lon="98.901659" lat="18.882524">
                <ele>569.237793</ele>
                <time>2011-02-19T10:10:24Z</time>
            </trkpt>
            <trkpt lon="98.901318" lat="18.882823">
                <ele>557.702148</ele>
                <time>2011-02-19T10:10:35Z</time>
            </trkpt>
            <trkpt lon="98.901150" lat="18.883011">
                <ele>551.934082</ele>
                <time>2011-02-19T10:10:41Z</time>
            </trkpt>
            <trkpt lon="98.900862" lat="18.883567">
                <ele>541.840210</ele>
                <time>2011-02-19T10:10:56Z</time>
            </trkpt>
            <trkpt lon="98.901168" lat="18.884527">
                <ele>527.420410</ele>
                <time>2011-02-19T10:11:27Z</time>
            </trkpt>
            <trkpt lon="98.901040" lat="18.884294">
                <ele>520.691284</ele>
                <time>2011-02-19T10:11:44Z</time>
            </trkpt>
            <trkpt lon="98.900835" lat="18.884242">
                <ele>519.249268</ele>
                <time>2011-02-19T10:11:49Z</time>
            </trkpt>
            <trkpt lon="98.900623" lat="18.884294">
                <ele>520.691284</ele>
                <time>2011-02-19T10:11:59Z</time>
            </trkpt>
            <trkpt lon="98.900367" lat="18.884572">
                <ele>527.901001</ele>
                <time>2011-02-19T10:12:40Z</time>
            </trkpt>
            <trkpt lon="98.900264" lat="18.884629">
                <ele>528.381836</ele>
                <time>2011-02-19T10:12:53Z</time>
            </trkpt>
            <trkpt lon="98.900144" lat="18.884603">
                <ele>527.901001</ele>
                <time>2011-02-19T10:13:38Z</time>
            </trkpt>
            <trkpt lon="98.900125" lat="18.884619">
                <ele>525.978394</ele>
                <time>2011-02-19T10:13:54Z</time>
            </trkpt>
            <trkpt lon="98.900516" lat="18.885569">
                <ele>518.287842</ele>
                <time>2011-02-19T10:14:34Z</time>
            </trkpt>
            <trkpt lon="98.900891" lat="18.885862">
                <ele>514.923340</ele>
                <time>2011-02-19T10:14:46Z</time>
            </trkpt>
            <trkpt lon="98.901149" lat="18.886442">
                <ele>514.923340</ele>
                <time>2011-02-19T10:14:58Z</time>
            </trkpt>
            <trkpt lon="98.901742" lat="18.887118">
                <ele>510.597290</ele>
                <time>2011-02-19T10:15:22Z</time>
            </trkpt>
            <trkpt lon="98.901873" lat="18.887240">
                <ele>509.636108</ele>
                <time>2011-02-19T10:15:31Z</time>
            </trkpt>
            <trkpt lon="98.903191" lat="18.887533">
                <ele>500.022949</ele>
                <time>2011-02-19T10:16:12Z</time>
            </trkpt>
            <trkpt lon="98.904910" lat="18.889715">
                <ele>496.177734</ele>
                <time>2011-02-19T10:17:30Z</time>
            </trkpt>
            <trkpt lon="98.904704" lat="18.890454">
                <ele>502.426148</ele>
                <time>2011-02-19T10:18:29Z</time>
            </trkpt>
            <trkpt lon="98.905226" lat="18.890838">
                <ele>511.558716</ele>
                <time>2011-02-19T10:20:00Z</time>
            </trkpt>
            <trkpt lon="98.905311" lat="18.890937">
                <ele>512.039429</ele>
                <time>2011-02-19T10:20:12Z</time>
            </trkpt>
            <trkpt lon="98.905351" lat="18.891005">
                <ele>512.039429</ele>
                <time>2011-02-19T10:20:33Z</time>
            </trkpt>
            <trkpt lon="98.905583" lat="18.891170">
                <ele>510.597290</ele>
                <time>2011-02-19T10:22:40Z</time>
            </trkpt>
            <trkpt lon="98.905594" lat="18.891323">
                <ele>510.116699</ele>
                <time>2011-02-19T10:22:50Z</time>
            </trkpt>
            <trkpt lon="98.905185" lat="18.891791">
                <ele>500.022949</ele>
                <time>2011-02-19T10:23:13Z</time>
            </trkpt>
            <trkpt lon="98.905038" lat="18.892499">
                <ele>491.851685</ele>
                <time>2011-02-19T10:23:32Z</time>
            </trkpt>
            <trkpt lon="98.905265" lat="18.893707">
                <ele>492.332398</ele>
                <time>2011-02-19T10:24:08Z</time>
            </trkpt>
            <trkpt lon="98.905188" lat="18.894581">
                <ele>478.873901</ele>
                <time>2011-02-19T10:24:57Z</time>
            </trkpt>
            <trkpt lon="98.905363" lat="18.895253">
                <ele>464.454102</ele>
                <time>2011-02-19T10:25:18Z</time>
            </trkpt>
            <trkpt lon="98.905193" lat="18.896363">
                <ele>455.802246</ele>
                <time>2011-02-19T10:25:40Z</time>
            </trkpt>
            <trkpt lon="98.905211" lat="18.896693">
                <ele>450.995606</ele>
                <time>2011-02-19T10:25:47Z</time>
            </trkpt>
            <trkpt lon="98.905463" lat="18.897470">
                <ele>436.095215</ele>
                <time>2011-02-19T10:26:03Z</time>
            </trkpt>
            <trkpt lon="98.906704" lat="18.899225">
                <ele>413.023560</ele>
                <time>2011-02-19T10:26:52Z</time>
            </trkpt>
            <trkpt lon="98.906958" lat="18.899860">
                <ele>404.371704</ele>
                <time>2011-02-19T10:27:13Z</time>
            </trkpt>
            <trkpt lon="98.907079" lat="18.900015">
                <ele>400.045898</ele>
                <time>2011-02-19T10:27:17Z</time>
            </trkpt>
            <trkpt lon="98.907834" lat="18.900464">
                <ele>386.587402</ele>
                <time>2011-02-19T10:27:34Z</time>
            </trkpt>
            <trkpt lon="98.907717" lat="18.900989">
                <ele>383.703247</ele>
                <time>2011-02-19T10:27:46Z</time>
            </trkpt>
            <trkpt lon="98.907880" lat="18.901597">
                <ele>383.222656</ele>
                <time>2011-02-19T10:28:03Z</time>
            </trkpt>
            <trkpt lon="98.909904" lat="18.902500">
                <ele>381.780640</ele>
                <time>2011-02-19T10:29:05Z</time>
            </trkpt>
            <trkpt lon="98.910726" lat="18.902401">
                <ele>379.858032</ele>
                <time>2011-02-19T10:29:46Z</time>
            </trkpt>
            <trkpt lon="98.910985" lat="18.902472">
                <ele>376.974243</ele>
                <time>2011-02-19T10:29:54Z</time>
            </trkpt>
            <trkpt lon="98.911511" lat="18.902783">
                <ele>378.896851</ele>
                <time>2011-02-19T10:30:11Z</time>
            </trkpt>
            <trkpt lon="98.912054" lat="18.903404">
                <ele>380.338745</ele>
                <time>2011-02-19T10:30:45Z</time>
            </trkpt>
            <trkpt lon="98.913166" lat="18.904351">
                <ele>378.416138</ele>
                <time>2011-02-19T10:31:17Z</time>
            </trkpt>
            <trkpt lon="98.913548" lat="18.906872">
                <ele>372.167481</ele>
                <time>2011-02-19T10:32:33Z</time>
            </trkpt>
            <trkpt lon="98.913674" lat="18.907395">
                <ele>369.764282</ele>
                <time>2011-02-19T10:32:44Z</time>
            </trkpt>
            <trkpt lon="98.914136" lat="18.908561">
                <ele>366.399536</ele>
                <time>2011-02-19T10:33:08Z</time>
            </trkpt>
            <trkpt lon="98.914437" lat="18.908781">
                <ele>367.360962</ele>
                <time>2011-02-19T10:33:17Z</time>
            </trkpt>
            <trkpt lon="98.915155" lat="18.908817">
                <ele>367.360962</ele>
                <time>2011-02-19T10:33:49Z</time>
            </trkpt>
            <trkpt lon="98.915954" lat="18.908967">
                <ele>363.515747</ele>
                <time>2011-02-19T10:34:06Z</time>
            </trkpt>
            <trkpt lon="98.916631" lat="18.910103">
                <ele>363.996338</ele>
                <time>2011-02-19T10:34:34Z</time>
            </trkpt>
            <trkpt lon="98.919388" lat="18.910335">
                <ele>362.073731</ele>
                <time>2011-02-19T10:35:41Z</time>
            </trkpt>
            <trkpt lon="98.921292" lat="18.910739">
                <ele>358.708984</ele>
                <time>2011-02-19T10:36:23Z</time>
            </trkpt>
            <trkpt lon="98.921003" lat="18.907944">
                <ele>356.305786</ele>
                <time>2011-02-19T10:44:29Z</time>
            </trkpt>
            <trkpt lon="98.920904" lat="18.907624">
                <ele>356.305786</ele>
                <time>2011-02-19T10:44:41Z</time>
            </trkpt>
            <trkpt lon="98.920568" lat="18.907459">
                <ele>356.786377</ele>
                <time>2011-02-19T10:44:56Z</time>
            </trkpt>
            <trkpt lon="98.920548" lat="18.907338">
                <ele>357.267090</ele>
                <time>2011-02-19T10:45:02Z</time>
            </trkpt>
            <trkpt lon="98.920556" lat="18.906863">
                <ele>361.112427</ele>
                <time>2011-02-19T10:45:26Z</time>
            </trkpt>
            <trkpt lon="98.920867" lat="18.906523">
                <ele>367.841553</ele>
                <time>2011-02-19T10:46:21Z</time>
            </trkpt>
            <trkpt lon="98.920963" lat="18.906422">
                <ele>369.283691</ele>
                <time>2011-02-19T10:46:34Z</time>
            </trkpt>
            <trkpt lon="98.921250" lat="18.905911">
                <ele>373.128906</ele>
                <time>2011-02-19T10:48:19Z</time>
            </trkpt>
            <trkpt lon="98.921459" lat="18.905365">
                <ele>373.609497</ele>
                <time>2011-02-19T10:48:46Z</time>
            </trkpt>
            <trkpt lon="98.921409" lat="18.904901">
                <ele>376.012817</ele>
                <time>2011-02-19T10:49:09Z</time>
            </trkpt>
            <trkpt lon="98.920736" lat="18.901816">
                <ele>379.858032</ele>
                <time>2011-02-19T10:52:16Z</time>
            </trkpt>
            <trkpt lon="98.920714" lat="18.901360">
                <ele>380.338745</ele>
                <time>2011-02-19T10:52:34Z</time>
            </trkpt>
            <trkpt lon="98.921073" lat="18.900810">
                <ele>381.300049</ele>
                <time>2011-02-19T10:53:07Z</time>
            </trkpt>
            <trkpt lon="98.920487" lat="18.900250">
                <ele>386.587402</ele>
                <time>2011-02-19T10:53:53Z</time>
            </trkpt>
            <trkpt lon="98.919406" lat="18.899739">
                <ele>390.432617</ele>
                <time>2011-02-19T10:55:17Z</time>
            </trkpt>
            <trkpt lon="98.918822" lat="18.899098">
                <ele>389.471191</ele>
                <time>2011-02-19T10:56:18Z</time>
            </trkpt>
            <trkpt lon="98.918105" lat="18.898031">
                <ele>391.874512</ele>
                <time>2011-02-19T10:57:13Z</time>
            </trkpt>
            <trkpt lon="98.917400" lat="18.896345">
                <ele>395.719849</ele>
                <time>2011-02-19T10:58:47Z</time>
            </trkpt>
            <trkpt lon="98.917170" lat="18.894706">
                <ele>398.603760</ele>
                <time>2011-02-19T11:00:13Z</time>
            </trkpt>
            <trkpt lon="98.916900" lat="18.894199">
                <ele>400.526489</ele>
                <time>2011-02-19T11:00:51Z</time>
            </trkpt>
            <trkpt lon="98.917267" lat="18.892304">
                <ele>401.007080</ele>
                <time>2011-02-19T11:02:12Z</time>
            </trkpt>
            <trkpt lon="98.917267" lat="18.891199">
                <ele>402.929688</ele>
                <time>2011-02-19T11:02:56Z</time>
            </trkpt>
            <trkpt lon="98.917269" lat="18.891116">
                <ele>402.929688</ele>
                <time>2011-02-19T11:04:59Z</time>
            </trkpt>
            <trkpt lon="98.916954" lat="18.890995">
                <ele>401.968506</ele>
                <time>2011-02-19T11:06:22Z</time>
            </trkpt>
            <trkpt lon="98.916127" lat="18.889870">
                <ele>404.852295</ele>
                <time>2011-02-19T11:07:28Z</time>
            </trkpt>
            <trkpt lon="98.915994" lat="18.889744">
                <ele>404.852295</ele>
                <time>2011-02-19T11:07:34Z</time>
            </trkpt>
            <trkpt lon="98.915932" lat="18.889462">
                <ele>405.333008</ele>
                <time>2011-02-19T11:08:07Z</time>
            </trkpt>
            <trkpt lon="98.916149" lat="18.889040">
                <ele>413.023560</ele>
                <time>2011-02-19T11:09:12Z</time>
            </trkpt>
            <trkpt lon="98.916107" lat="18.888828">
                <ele>412.062256</ele>
                <time>2011-02-19T11:10:02Z</time>
            </trkpt>
            <trkpt lon="98.916281" lat="18.888512">
                <ele>413.984863</ele>
                <time>2011-02-19T11:10:21Z</time>
            </trkpt>
            <trkpt lon="98.916317" lat="18.888298">
                <ele>413.984863</ele>
                <time>2011-02-19T11:10:34Z</time>
            </trkpt>
            <trkpt lon="98.917376" lat="18.886958">
                <ele>406.294311</ele>
                <time>2011-02-19T11:11:42Z</time>
            </trkpt>
            <trkpt lon="98.917754" lat="18.886754">
                <ele>404.371704</ele>
                <time>2011-02-19T11:12:03Z</time>
            </trkpt>
            <trkpt lon="98.918264" lat="18.886053">
                <ele>401.487793</ele>
                <time>2011-02-19T11:12:32Z</time>
            </trkpt>
            <trkpt lon="98.918765" lat="18.885414">
                <ele>395.239136</ele>
                <time>2011-02-19T11:12:56Z</time>
            </trkpt>
            <trkpt lon="98.919324" lat="18.884910">
                <ele>391.874512</ele>
                <time>2011-02-19T11:14:33Z</time>
            </trkpt>
            <trkpt lon="98.919485" lat="18.884791">
                <ele>388.990601</ele>
                <time>2011-02-19T11:14:41Z</time>
            </trkpt>
            <trkpt lon="98.920684" lat="18.884114">
                <ele>380.338745</ele>
                <time>2011-02-19T11:15:23Z</time>
            </trkpt>
            <trkpt lon="98.921458" lat="18.883233">
                <ele>375.051514</ele>
                <time>2011-02-19T11:16:27Z</time>
            </trkpt>
            <trkpt lon="98.921927" lat="18.883050">
                <ele>377.454834</ele>
                <time>2011-02-19T11:16:50Z</time>
            </trkpt>
            <trkpt lon="98.922019" lat="18.882307">
                <ele>388.510010</ele>
                <time>2011-02-19T11:18:30Z</time>
            </trkpt>
            <trkpt lon="98.923072" lat="18.881537">
                <ele>381.780640</ele>
                <time>2011-02-19T11:19:47Z</time>
            </trkpt>
            <trkpt lon="98.923105" lat="18.881383">
                <ele>380.338745</ele>
                <time>2011-02-19T11:19:57Z</time>
            </trkpt>
            <trkpt lon="98.924214" lat="18.880323">
                <ele>372.648193</ele>
                <time>2011-02-19T11:20:41Z</time>
            </trkpt>
            <trkpt lon="98.924332" lat="18.880082">
                <ele>371.686890</ele>
                <time>2011-02-19T11:20:47Z</time>
            </trkpt>
            <trkpt lon="98.924278" lat="18.879647">
                <ele>371.206299</ele>
                <time>2011-02-19T11:21:08Z</time>
            </trkpt>
            <trkpt lon="98.924604" lat="18.879184">
                <ele>376.974243</ele>
                <time>2011-02-19T11:22:35Z</time>
            </trkpt>
            <trkpt lon="98.925083" lat="18.878179">
                <ele>375.051514</ele>
                <time>2011-02-19T11:23:25Z</time>
            </trkpt>
            <trkpt lon="98.925120" lat="18.877975">
                <ele>374.570801</ele>
                <time>2011-02-19T11:23:34Z</time>
            </trkpt>
            <trkpt lon="98.925524" lat="18.877492">
                <ele>375.532105</ele>
                <time>2011-02-19T11:24:15Z</time>
            </trkpt>
            <trkpt lon="98.926166" lat="18.876859">
                <ele>372.167481</ele>
                <time>2011-02-19T11:24:49Z</time>
            </trkpt>
            <trkpt lon="98.926483" lat="18.876876">
                <ele>370.244873</ele>
                <time>2011-02-19T11:25:02Z</time>
            </trkpt>
            <trkpt lon="98.926883" lat="18.876685">
                <ele>370.725586</ele>
                <time>2011-02-19T11:25:24Z</time>
            </trkpt>
            <trkpt lon="98.927419" lat="18.875957">
                <ele>369.283691</ele>
                <time>2011-02-19T11:27:38Z</time>
            </trkpt>
            <trkpt lon="98.927765" lat="18.875984">
                <ele>367.360962</ele>
                <time>2011-02-19T11:27:57Z</time>
            </trkpt>
            <trkpt lon="98.928203" lat="18.875699">
                <ele>364.476929</ele>
                <time>2011-02-19T11:29:34Z</time>
            </trkpt>
            <trkpt lon="98.928188" lat="18.875590">
                <ele>368.322266</ele>
                <time>2011-02-19T11:30:03Z</time>
            </trkpt>
            <trkpt lon="98.928006" lat="18.875437">
                <ele>369.764282</ele>
                <time>2011-02-19T11:30:38Z</time>
            </trkpt>
            <trkpt lon="98.928033" lat="18.875324">
                <ele>371.206299</ele>
                <time>2011-02-19T11:30:48Z</time>
            </trkpt>
            <trkpt lon="98.928442" lat="18.874927">
                <ele>374.570801</ele>
                <time>2011-02-19T11:31:46Z</time>
            </trkpt>
            <trkpt lon="98.928663" lat="18.874025">
                <ele>373.609497</ele>
                <time>2011-02-19T11:33:19Z</time>
            </trkpt>
            <trkpt lon="98.928725" lat="18.874039">
                <ele>375.532105</ele>
                <time>2011-02-19T11:34:14Z</time>
            </trkpt>
            <trkpt lon="98.929340" lat="18.873841">
                <ele>376.493530</ele>
                <time>2011-02-19T11:34:56Z</time>
            </trkpt>
            <trkpt lon="98.929827" lat="18.872972">
                <ele>388.510010</ele>
                <time>2011-02-19T11:37:27Z</time>
            </trkpt>
            <trkpt lon="98.930116" lat="18.872540">
                <ele>381.780640</ele>
                <time>2011-02-19T11:37:57Z</time>
            </trkpt>
            <trkpt lon="98.930307" lat="18.872423">
                <ele>382.261352</ele>
                <time>2011-02-19T11:38:02Z</time>
            </trkpt>
            <trkpt lon="98.930829" lat="18.872485">
                <ele>380.819458</ele>
                <time>2011-02-19T11:38:12Z</time>
            </trkpt>
            <trkpt lon="98.932182" lat="18.873143">
                <ele>371.206299</ele>
                <time>2011-02-19T11:38:37Z</time>
            </trkpt>
            <trkpt lon="98.932530" lat="18.873401">
                <ele>366.880249</ele>
                <time>2011-02-19T11:38:44Z</time>
            </trkpt>
            <trkpt lon="98.932750" lat="18.873885">
                <ele>367.360962</ele>
                <time>2011-02-19T11:38:54Z</time>
            </trkpt>
            <trkpt lon="98.933433" lat="18.874191">
                <ele>366.399536</ele>
                <time>2011-02-19T11:39:08Z</time>
            </trkpt>
            <trkpt lon="98.934244" lat="18.875385">
                <ele>362.554321</ele>
                <time>2011-02-19T11:39:35Z</time>
            </trkpt>
            <trkpt lon="98.935158" lat="18.875834">
                <ele>362.554321</ele>
                <time>2011-02-19T11:40:02Z</time>
            </trkpt>
            <trkpt lon="98.936235" lat="18.875909">
                <ele>359.189697</ele>
                <time>2011-02-19T11:40:27Z</time>
            </trkpt>
            <trkpt lon="98.938717" lat="18.872864">
                <ele>355.825195</ele>
                <time>2011-02-19T11:42:08Z</time>
            </trkpt>
            <trkpt lon="98.939115" lat="18.871911">
                <ele>357.267090</ele>
                <time>2011-02-19T11:42:35Z</time>
            </trkpt>
            <trkpt lon="98.939374" lat="18.871695">
                <ele>357.267090</ele>
                <time>2011-02-19T11:42:46Z</time>
            </trkpt>
            <trkpt lon="98.940407" lat="18.871397">
                <ele>354.863769</ele>
                <time>2011-02-19T11:43:09Z</time>
            </trkpt>
            <trkpt lon="98.940427" lat="18.870659">
                <ele>359.670410</ele>
                <time>2011-02-19T11:43:28Z</time>
            </trkpt>
            <trkpt lon="98.940372" lat="18.870397">
                <ele>359.670410</ele>
                <time>2011-02-19T11:43:38Z</time>
            </trkpt>
            <trkpt lon="98.940453" lat="18.869839">
                <ele>356.786377</ele>
                <time>2011-02-19T11:43:53Z</time>
            </trkpt>
            <trkpt lon="98.940641" lat="18.869583">
                <ele>356.305786</ele>
                <time>2011-02-19T11:44:01Z</time>
            </trkpt>
            <trkpt lon="98.942005" lat="18.870015">
                <ele>357.267090</ele>
                <time>2011-02-19T11:44:41Z</time>
            </trkpt>
            <trkpt lon="98.942797" lat="18.869916">
                <ele>359.670410</ele>
                <time>2011-02-19T11:45:08Z</time>
            </trkpt>
            <trkpt lon="98.943975" lat="18.869878">
                <ele>357.267090</ele>
                <time>2011-02-19T11:45:51Z</time>
            </trkpt>
            <trkpt lon="98.944660" lat="18.869501">
                <ele>359.670410</ele>
                <time>2011-02-19T11:46:16Z</time>
            </trkpt>
            <trkpt lon="98.945043" lat="18.869211">
                <ele>355.344482</ele>
                <time>2011-02-19T11:46:29Z</time>
            </trkpt>
            <trkpt lon="98.945203" lat="18.866690">
                <ele>358.228394</ele>
                <time>2011-02-19T11:47:43Z</time>
            </trkpt>
            <trkpt lon="98.944767" lat="18.866326">
                <ele>355.344482</ele>
                <time>2011-02-19T11:48:25Z</time>
            </trkpt>
            <trkpt lon="98.944444" lat="18.866276">
                <ele>352.941162</ele>
                <time>2011-02-19T11:48:42Z</time>
            </trkpt>
        </trkseg>
    </trk>
</gpx>